Time;durP1;ratioP1;P1;durP2;ratioP2;P2;SDS_P1;SDS_P2;PMS_P1;PMS_P2;Temp;Humidity;BMP_temperature;BMP_pressure;BME280_temperature;BME280_humidity;BME280_pressure;Samples;Min_cycle;Max_cycle;Signal;HPM_P1;HPM_P2
2023/04/05 00:00:48;;;;;;;15.90;6.30;;;6.20;89.80;;;;;;4975352;28;20204;-81
2023/04/05 00:03:16;;;;;;;8.97;6.17;;;6.10;90.30;;;;;;4972514;28;20672;-81
2023/04/05 00:05:44;;;;;;;9.45;6.40;;;6.10;90.60;;;;;;4974912;28;20176;-81
2023/04/05 00:08:17;;;;;;;13.13;7.25;;;6.00;91.20;;;;;;4973168;28;20193;-81
2023/04/05 00:10:43;;;;;;;9.98;6.18;;;6.00;91.00;;;;;;4971996;28;20196;-81
2023/04/05 00:13:08;;;;;;;10.87;6.53;;;6.00;91.30;;;;;;4974154;28;20199;-81
2023/04/05 00:15:34;;;;;;;10.40;6.30;;;5.90;91.50;;;;;;4974493;28;20539;-80
2023/04/05 00:18:02;;;;;;;12.13;6.70;;;5.90;92.40;;;;;;4954357;28;20689;-81
2023/04/05 00:20:30;;;;;;;11.73;6.88;;;5.80;92.60;;;;;;4970240;28;20271;-81
2023/04/05 00:22:58;;;;;;;10.35;6.40;;;5.80;93.30;;;;;;4970128;28;20188;-81
2023/04/05 00:25:25;;;;;;;9.77;6.47;;;5.80;93.80;;;;;;4968664;28;20205;-81
2023/04/05 00:27:50;;;;;;;11.48;6.82;;;5.70;93.90;;;;;;4971595;28;20172;-81
2023/04/05 00:30:19;;;;;;;9.03;6.47;;;5.70;94.60;;;;;;4965606;28;20222;-81
2023/04/05 00:32:49;;;;;;;9.88;7.00;;;5.70;94.90;;;;;;4971196;28;20192;-81
2023/04/05 00:35:20;;;;;;;9.45;6.63;;;5.70;94.90;;;;;;4970066;28;20616;-81
2023/04/05 00:37:48;;;;;;;12.02;6.75;;;5.70;95.00;;;;;;4970693;28;20188;-81
2023/04/05 00:40:14;;;;;;;12.20;6.95;;;5.60;95.30;;;;;;4967454;28;20196;-81
2023/04/05 00:42:47;;;;;;;8.63;5.27;;;5.60;95.60;;;;;;4965420;28;20180;-81
2023/04/05 00:45:15;;;;;;;9.27;6.97;;;5.60;96.00;;;;;;4972417;28;20204;-81
2023/04/05 00:47:41;;;;;;;10.30;7.00;;;5.60;96.60;;;;;;4971951;28;20668;-81
2023/04/05 00:50:08;;;;;;;14.50;7.27;;;5.60;96.80;;;;;;4973642;28;20184;-81
2023/04/05 00:52:37;;;;;;;11.77;7.07;;;5.60;97.30;;;;;;4974354;28;20974;-81
2023/04/05 00:55:06;;;;;;;9.75;5.70;;;5.50;97.80;;;;;;4964722;28;20204;-81
2023/04/05 00:57:38;;;;;;;10.65;6.60;;;5.50;98.20;;;;;;4969962;28;20203;-80
2023/04/05 01:00:10;;;;;;;11.82;6.65;;;5.50;99.00;;;;;;4967929;28;20195;-81
2023/04/05 01:02:46;;;;;;;12.93;7.00;;;5.40;98.30;;;;;;4972781;28;20196;-81
2023/04/05 01:05:41;;;;;;;11.07;6.47;;;5.40;98.70;;;;;;4973430;28;20579;-81
2023/04/05 01:08:20;;;;;;;11.13;6.57;;;5.30;98.70;;;;;;4963986;28;20211;-81
2023/04/05 01:10:50;;;;;;;12.15;6.80;;;5.20;98.10;;;;;;4971992;28;20280;-81
2023/04/05 01:13:16;;;;;;;9.30;6.38;;;5.20;98.40;;;;;;4972317;28;20256;-81
2023/04/05 01:15:45;;;;;;;9.98;6.80;;;5.20;98.60;;;;;;4971843;28;20192;-81
2023/04/05 01:18:13;;;;;;;10.18;6.10;;;5.10;98.00;;;;;;4968973;28;20212;-81
2023/04/05 01:21:09;;;;;;;11.90;6.63;;;5.10;98.60;;;;;;4974607;28;20208;-81
2023/04/05 01:23:57;;;;;;;12.00;7.82;;;5.10;98.90;;;;;;4947488;28;20220;-81
2023/04/05 01:26:37;;;;;;;11.48;7.03;;;5.00;99.30;;;;;;4978877;28;20206;-81
2023/04/05 01:29:42;;;;;;;11.25;6.80;;;5.00;99.30;;;;;;4969486;28;20928;-81
2023/04/05 01:32:15;;;;;;;11.80;6.68;;;5.10;99.90;;;;;;4977985;28;20625;-81
2023/04/05 01:35:08;;;;;;;10.73;7.00;;;5.10;99.90;;;;;;4976638;28;20196;-81
2023/04/05 01:37:35;;;;;;;12.65;7.57;;;5.10;99.90;;;;;;4979261;28;20248;-81
2023/04/05 01:40:03;;;;;;;13.55;7.20;;;5.10;99.90;;;;;;4971235;28;20173;-81
2023/04/05 01:42:31;;;;;;;18.00;8.43;;;5.10;99.90;;;;;;4974548;28;20189;-81
2023/04/05 01:45:00;;;;;;;13.52;7.55;;;5.20;99.90;;;;;;4974069;28;20553;-80
2023/04/05 01:47:26;;;;;;;9.65;6.90;;;5.20;99.90;;;;;;4969248;28;20184;-81
2023/04/05 01:49:51;;;;;;;11.13;7.20;;;5.20;99.90;;;;;;4974108;28;20656;-81
2023/04/05 01:52:17;;;;;;;8.67;6.83;;;5.20;99.90;;;;;;4968901;28;20212;-81
2023/04/05 01:54:43;;;;;;;10.10;6.90;;;5.20;99.90;;;;;;4972298;28;20289;-81
2023/04/05 01:57:08;;;;;;;13.10;7.20;;;5.20;99.90;;;;;;4973853;28;20249;-81
2023/04/05 01:59:34;;;;;;;11.07;6.80;;;5.20;99.90;;;;;;4973535;28;20212;-80
2023/04/05 02:02:00;;;;;;;13.37;8.57;;;5.10;99.90;;;;;;4960687;28;20190;-81
2023/04/05 02:04:28;;;;;;;9.30;6.87;;;5.00;99.90;;;;;;4966122;28;20551;-81
2023/04/05 02:06:53;;;;;;;10.95;7.50;;;5.00;99.90;;;;;;4972163;28;20196;-81
2023/04/05 02:09:19;;;;;;;15.20;6.80;;;4.90;99.90;;;;;;4971979;28;20192;-80
2023/04/05 02:11:56;;;;;;;9.80;6.57;;;4.90;99.90;;;;;;4971413;28;20204;-81
2023/04/05 02:14:23;;;;;;;10.02;7.10;;;4.90;99.90;;;;;;4975077;28;20303;-81
2023/04/05 02:16:54;;;;;;;10.07;7.60;;;4.80;99.90;;;;;;4973811;28;20192;-81
2023/04/05 02:19:23;;;;;;;10.65;6.80;;;4.80;99.90;;;;;;4976271;28;20574;-81
2023/04/05 02:22:02;;;;;;;14.20;7.47;;;4.80;99.90;;;;;;4972477;28;20191;-81
2023/04/05 02:24:33;;;;;;;10.68;7.05;;;4.70;99.90;;;;;;4971018;28;20204;-81
2023/04/05 02:26:59;;;;;;;14.40;7.47;;;4.70;99.90;;;;;;4971370;28;20204;-81
2023/04/05 02:29:30;;;;;;;12.17;7.03;;;4.60;99.90;;;;;;4977105;28;20184;-81
2023/04/05 02:31:59;;;;;;;13.65;8.35;;;4.60;99.90;;;;;;4975127;28;20471;-81
2023/04/05 02:34:27;;;;;;;10.60;7.45;;;4.50;99.90;;;;;;4973140;28;20280;-81
2023/04/05 02:36:56;;;;;;;15.32;7.82;;;4.50;99.90;;;;;;4973308;28;20180;-81
2023/04/05 02:39:25;;;;;;;13.40;7.93;;;4.40;99.90;;;;;;4974632;28;20180;-81
2023/04/05 02:41:50;;;;;;;10.73;6.70;;;4.40;99.90;;;;;;4970113;28;20189;-81
2023/04/05 02:44:16;;;;;;;15.10;8.60;;;4.40;99.90;;;;;;4975190;28;20219;-81
2023/04/05 02:46:41;;;;;;;9.40;7.43;;;4.40;99.90;;;;;;4975007;28;20275;-81
2023/04/05 02:49:07;;;;;;;15.80;7.90;;;4.40;99.90;;;;;;4974388;28;20204;-81
2023/04/05 02:51:33;;;;;;;12.67;8.33;;;4.30;99.90;;;;;;4976514;28;20192;-81
2023/04/05 02:54:00;;;;;;;15.90;7.20;;;4.30;99.90;;;;;;4972263;28;20309;-81
2023/04/05 02:56:25;;;;;;;17.15;7.53;;;4.30;99.90;;;;;;4971222;28;20439;-81
2023/04/05 02:58:51;;;;;;;10.20;6.97;;;4.30;99.90;;;;;;4974116;28;20768;-81
2023/04/05 03:01:17;;;;;;;12.90;7.20;;;4.30;99.90;;;;;;4975391;28;20187;-81
2023/04/05 03:03:49;;;;;;;10.70;7.38;;;4.20;99.90;;;;;;4973829;28;20204;-81
2023/04/05 03:06:14;;;;;;;9.75;7.53;;;4.20;99.90;;;;;;4975672;28;20194;-81
2023/04/05 03:08:42;;;;;;;12.57;7.53;;;4.20;99.90;;;;;;4975156;28;20184;-81
2023/04/05 03:11:09;;;;;;;12.57;7.40;;;4.20;99.90;;;;;;4970483;28;20234;-81
2023/04/05 03:13:35;;;;;;;11.07;6.80;;;4.20;99.90;;;;;;4969155;28;20218;-81
2023/04/05 03:16:01;;;;;;;14.32;8.77;;;4.20;99.90;;;;;;4976189;28;20219;-81
2023/04/05 03:18:28;;;;;;;9.55;7.15;;;4.20;99.90;;;;;;4975100;28;20272;-81
2023/04/05 03:20:58;;;;;;;18.70;8.27;;;4.20;99.90;;;;;;4976453;28;20207;-81
2023/04/05 03:23:30;;;;;;;15.57;8.02;;;4.20;99.90;;;;;;4968788;28;20587;-80
2023/04/05 03:26:02;;;;;;;14.93;8.73;;;4.20;99.90;;;;;;4976183;28;20222;-81
2023/04/05 03:28:31;;;;;;;11.23;7.43;;;4.20;99.90;;;;;;4972283;28;20189;-81
2023/04/05 03:30:57;;;;;;;11.45;7.75;;;4.10;99.90;;;;;;4971604;28;20215;-81
2023/04/05 03:33:23;;;;;;;13.98;7.38;;;4.10;99.90;;;;;;4973456;28;20190;-81
2023/04/05 03:35:49;;;;;;;11.30;7.78;;;4.10;99.90;;;;;;4972316;28;20256;-81
2023/04/05 03:38:15;;;;;;;9.97;7.17;;;4.10;99.90;;;;;;4966711;28;20223;-81
2023/04/05 03:40:41;;;;;;;15.18;8.30;;;4.00;99.90;;;;;;4971555;28;20444;-81
2023/04/05 03:43:06;;;;;;;13.10;7.00;;;4.00;99.90;;;;;;4971662;28;20195;-81
2023/04/05 03:45:33;;;;;;;10.20;7.23;;;3.90;99.90;;;;;;4970981;28;20218;-81
2023/04/05 03:47:58;;;;;;;12.70;7.30;;;3.90;99.90;;;;;;4971581;28;20185;-80
2023/04/05 03:50:25;;;;;;;10.50;7.20;;;3.80;99.90;;;;;;4965626;28;20252;-81
2023/04/05 03:52:51;;;;;;;11.13;7.32;;;3.80;99.90;;;;;;4968467;28;20185;-81
2023/04/05 03:55:17;;;;;;;11.80;7.20;;;3.70;99.90;;;;;;4973264;28;20203;-81
2023/04/05 03:57:42;;;;;;;12.50;7.57;;;3.70;99.90;;;;;;4976438;28;20203;-81
2023/04/05 04:00:13;;;;;;;13.07;7.77;;;3.70;99.90;;;;;;4972435;28;20327;-81
2023/04/05 04:02:46;;;;;;;14.93;7.45;;;3.60;99.90;;;;;;4971833;28;20615;-81
2023/04/05 04:05:13;;;;;;;9.82;6.55;;;3.60;99.90;;;;;;4971789;28;20620;-81
2023/04/05 04:07:42;;;;;;;10.57;7.13;;;3.60;99.90;;;;;;4972734;28;20187;-80
2023/04/05 04:10:11;;;;;;;14.57;8.10;;;3.50;99.90;;;;;;4962668;28;20196;-81
2023/04/05 04:12:39;;;;;;;14.40;8.25;;;3.50;99.90;;;;;;4966297;28;20223;-80
2023/04/05 04:15:07;;;;;;;11.88;7.30;;;3.50;99.90;;;;;;4971860;28;20196;-81
2023/04/05 04:17:35;;;;;;;14.23;8.73;;;3.50;99.90;;;;;;4970694;28;20327;-80
2023/04/05 04:20:14;;;;;;;19.60;8.45;;;3.40;99.90;;;;;;4964808;28;20192;-81
2023/04/05 04:22:40;;;;;;;13.35;8.25;;;3.40;99.90;;;;;;4972895;28;20265;-81
2023/04/05 04:25:09;;;;;;;12.83;7.43;;;3.40;99.90;;;;;;4970336;28;20204;-80
2023/04/05 04:27:41;;;;;;;9.90;6.93;;;3.40;99.90;;;;;;4969250;28;20195;-80
2023/04/05 04:30:12;;;;;;;14.32;8.18;;;3.30;99.90;;;;;;4972110;28;20181;-81
2023/04/05 04:32:50;;;;;;;15.55;7.65;;;3.30;99.90;;;;;;4970918;28;20687;-81
2023/04/05 04:35:19;;;;;;;12.13;7.68;;;3.30;99.90;;;;;;4973454;28;20199;-80
2023/04/05 04:37:53;;;;;;;13.15;8.35;;;3.30;99.90;;;;;;4972811;28;20186;-79
2023/04/05 04:40:20;;;;;;;12.75;7.93;;;3.20;99.90;;;;;;4974796;28;20203;-80
2023/04/05 04:42:45;;;;;;;13.77;7.70;;;3.20;99.90;;;;;;4972255;28;20188;-80
2023/04/05 04:45:16;;;;;;;10.03;7.40;;;3.20;99.90;;;;;;4966367;28;20628;-81
2023/04/05 04:47:42;;;;;;;13.93;8.52;;;3.20;99.90;;;;;;4973633;28;20679;-80
2023/04/05 04:50:09;;;;;;;9.82;8.10;;;3.10;99.90;;;;;;4972660;28;20256;-80
2023/04/05 04:52:35;;;;;;;19.50;8.23;;;3.10;99.90;;;;;;4973725;28;20282;-79
2023/04/05 04:55:01;;;;;;;14.50;8.43;;;3.10;99.90;;;;;;4969941;28;20208;-80
2023/04/05 04:57:27;;;;;;;12.55;7.35;;;3.20;99.90;;;;;;4977916;28;20587;-80
2023/04/05 04:59:53;;;;;;;13.53;7.17;;;3.20;99.90;;;;;;4967815;28;20185;-80
2023/04/05 05:02:23;;;;;;;12.00;7.67;;;3.20;99.90;;;;;;4977357;28;20451;-80
2023/04/05 05:04:48;;;;;;;17.60;8.60;;;3.20;99.90;;;;;;4966706;28;20207;-80
2023/04/05 05:07:14;;;;;;;13.83;8.07;;;3.20;99.90;;;;;;4968568;28;20180;-80
2023/04/05 05:09:40;;;;;;;16.07;8.43;;;3.20;99.90;;;;;;4975037;28;20188;-79
2023/04/05 05:12:06;;;;;;;13.67;8.23;;;3.20;99.90;;;;;;4974855;28;20208;-79
2023/04/05 05:14:31;;;;;;;17.50;7.77;;;3.20;99.90;;;;;;4977359;28;20236;-80
2023/04/05 05:17:05;;;;;;;12.30;7.33;;;3.20;99.90;;;;;;4976522;28;20188;-80
2023/04/05 05:19:30;;;;;;;11.45;8.30;;;3.30;99.90;;;;;;4974287;28;20188;-80
2023/04/05 05:21:56;;;;;;;14.07;9.10;;;3.30;99.90;;;;;;4974518;28;20714;-80
2023/04/05 05:24:22;;;;;;;16.73;8.20;;;3.30;99.90;;;;;;4974269;28;20574;-80
2023/04/05 05:26:48;;;;;;;12.53;8.00;;;3.40;99.90;;;;;;4976900;28;20970;-80
2023/04/05 05:29:13;;;;;;;14.00;8.43;;;3.40;99.90;;;;;;4976927;28;20192;-80
2023/04/05 05:31:39;;;;;;;13.73;7.97;;;3.50;99.90;;;;;;4976491;28;20211;-81
2023/04/05 05:34:05;;;;;;;13.27;8.70;;;3.60;99.90;;;;;;4973710;28;20242;-81
2023/04/05 05:36:38;;;;;;;14.07;8.20;;;3.60;99.90;;;;;;4971904;28;20640;-82
2023/04/05 05:39:06;;;;;;;15.88;8.05;;;3.70;99.90;;;;;;4976056;28;20192;-80
2023/04/05 05:41:32;;;;;;;20.00;8.02;;;3.80;99.90;;;;;;4973621;28;20535;-80
2023/04/05 05:43:58;;;;;;;12.37;8.13;;;3.80;99.90;;;;;;4975744;28;20204;-81
2023/04/05 05:46:24;;;;;;;17.47;9.50;;;3.90;99.90;;;;;;4973318;28;20451;-78
2023/04/05 05:48:50;;;;;;;15.38;8.85;;;4.00;99.90;;;;;;4974747;28;20235;-79
2023/04/05 05:51:17;;;;;;;18.10;8.70;;;6.80;99.90;;;;;;4973871;28;20216;-80
2023/04/05 05:53:43;;;;;;;14.03;9.80;;;10.90;99.90;;;;;;4965888;28;20211;-81
2023/04/05 05:56:09;;;;;;;12.53;8.33;;;14.30;99.90;;;;;;4967608;28;20523;-80
2023/04/05 05:58:35;;;;;;;17.17;9.30;;;17.10;99.90;;;;;;4972958;28;20569;-80
2023/04/05 06:01:02;;;;;;;15.33;9.37;;;19.60;99.90;;;;;;4971442;28;20435;-81
2023/04/05 06:03:29;;;;;;;13.60;8.93;;;22.30;99.90;;;;;;4973479;28;20439;-81
2023/04/05 06:05:56;;;;;;;11.80;9.23;;;24.80;99.90;;;;;;4970503;28;20439;-81
2023/04/05 06:08:23;;;;;;;18.33;10.07;;;26.90;99.90;;;;;;4975122;28;21038;-81
2023/04/05 06:10:49;;;;;;;13.23;8.60;;;28.70;99.90;;;;;;4972923;28;20471;-81
2023/04/05 06:13:15;;;;;;;20.70;9.40;;;30.20;99.90;;;;;;4972905;28;20446;-82
2023/04/05 06:15:44;;;;;;;10.57;9.37;;;31.40;99.90;;;;;;4974447;28;20427;-81
2023/04/05 06:18:10;;;;;;;14.40;8.90;;;32.30;99.90;;;;;;4968486;28;20444;-81
2023/04/05 06:20:39;;;;;;;14.33;9.10;;;33.20;99.90;;;;;;4971981;28;20431;-82
2023/04/05 06:23:09;;;;;;;9.63;8.30;;;34.10;99.90;;;;;;4972320;28;20231;-81
2023/04/05 06:25:35;;;;;;;11.03;8.50;;;35.10;99.90;;;;;;4971930;28;20463;-81
2023/04/05 06:28:03;;;;;;;13.70;9.57;;;35.90;99.90;;;;;;4973221;28;20515;-82
2023/04/05 06:30:28;;;;;;;9.27;8.37;;;36.70;99.90;;;;;;4972159;28;21047;-81
2023/04/05 06:32:54;;;;;;;14.73;12.57;;;37.40;99.90;;;;;;4971789;28;20435;-81
2023/04/05 06:35:21;;;;;;;18.43;13.17;;;38.00;99.90;;;;;;4969279;28;20207;-81
2023/04/05 06:37:46;;;;;;;19.93;8.67;;;38.50;99.90;;;;;;4970168;28;20184;-81
2023/04/05 06:40:12;;;;;;;14.13;9.50;;;39.10;99.90;;;;;;4970173;28;20942;-82
2023/04/05 06:42:38;;;;;;;12.77;8.73;;;39.40;99.90;;;;;;4971411;28;20259;-82
2023/04/05 06:45:04;;;;;;;16.80;8.50;;;39.90;99.90;;;;;;4968636;28;20192;-82
2023/04/05 06:47:34;;;;;;;19.57;8.77;;;40.20;99.90;;;;;;4973023;28;20255;-83
2023/04/05 06:50:01;;;;;;;15.10;8.17;;;40.60;99.90;;;;;;4960549;28;20788;-83
2023/04/05 06:52:26;;;;;;;17.67;10.07;;;41.10;99.90;;;;;;4966384;28;20982;-83
2023/04/05 06:54:52;;;;;;;14.53;8.90;;;41.10;99.90;;;;;;4967333;28;20482;-83
2023/04/05 06:57:21;;;;;;;13.17;8.47;;;41.10;99.90;;;;;;4967522;28;20184;-82
2023/04/05 07:00:09;;;;;;;15.70;8.00;;;41.40;99.10;;;;;;4971288;28;20211;-84
2023/04/05 07:06:05;;;;;;;13.23;8.20;;;41.90;95.80;;;;;;4968653;28;20818;-81
2023/04/05 07:12:16;;;;;;;15.20;8.50;;;41.30;90.40;;;;;;4948834;28;20463;-82
2023/04/05 07:15:01;;;;;;;13.63;8.43;;;41.20;87.40;;;;;;4966606;28;20455;-82
2023/04/05 07:17:37;;;;;;;12.20;7.63;;;41.40;85.80;;;;;;4978228;28;20448;-83
2023/04/05 07:20:33;;;;;;;16.33;9.67;;;41.80;84.20;;;;;;4971683;28;20445;-83
2023/04/05 07:23:02;;;;;;;13.73;8.90;;;42.30;82.90;;;;;;4971441;28;21136;-82
2023/04/05 07:25:31;;;;;;;13.03;8.90;;;42.50;81.60;;;;;;4969863;28;20996;-82
2023/04/05 07:27:56;;;;;;;13.63;9.00;;;43.10;81.90;;;;;;4969774;28;21179;-82
2023/04/05 07:30:22;;;;;;;9.27;7.80;;;43.50;80.90;;;;;;4972039;28;20486;-82
2023/04/05 07:32:53;;;;;;;13.87;7.93;;;43.70;78.60;;;;;;4970283;28;20260;-83
2023/04/05 07:35:22;;;;;;;14.67;7.30;;;43.30;75.70;;;;;;4968915;28;20208;-82
2023/04/05 07:38:08;;;;;;;;;;;;;;;;;;;;;
2023/04/05 07:40:36;;;;;;;10.93;7.87;;;43.80;73.40;;;;;;4963946;28;20994;-82
2023/04/05 07:43:04;;;;;;;8.70;7.77;;;44.00;72.70;;;;;;4969690;28;20475;-82
2023/04/05 07:46:20;;;;;;;;;;;;;;;;;;;;;
2023/04/05 07:49:09;;;;;;;10.30;6.73;;;43.80;68.60;;;;;;4970752;28;20432;-83
2023/04/05 07:51:47;;;;;;;7.73;6.93;;;43.60;65.90;;;;;;4966521;28;20460;-81
2023/04/05 07:54:22;;;;;;;11.73;7.17;;;43.70;64.70;;;;;;4970740;28;20447;-79
2023/04/05 07:56:51;;;;;;;10.93;7.70;;;44.10;66.70;;;;;;4972402;28;20427;-79
2023/04/05 07:59:17;;;;;;;13.93;8.03;;;44.50;65.70;;;;;;4973656;28;20478;-81
2023/04/05 08:01:45;;;;;;;7.80;7.10;;;44.70;65.40;;;;;;4973250;28;20439;-79
2023/04/05 08:04:11;;;;;;;15.77;7.60;;;44.90;64.40;;;;;;4972076;28;20565;-80
2023/04/05 08:06:43;;;;;;;11.20;7.30;;;45.10;65.10;;;;;;4974445;28;20445;-81
2023/04/05 08:09:09;;;;;;;7.87;6.43;;;44.90;62.80;;;;;;4967064;28;20187;-80
2023/04/05 08:11:37;;;;;;;7.73;7.00;;;44.90;61.70;;;;;;4970634;28;20480;-82
2023/04/05 08:14:11;;;;;;;8.47;7.67;;;44.80;60.90;;;;;;4973709;28;20473;-83
2023/04/05 08:16:39;;;;;;;8.30;7.50;;;45.00;60.60;;;;;;4973531;28;20970;-83
2023/04/05 08:19:08;;;;;;;8.57;7.77;;;44.90;59.30;;;;;;4969290;28;20490;-81
2023/04/05 08:21:33;;;;;;;9.67;7.10;;;44.80;58.80;;;;;;4971475;28;20447;-82
2023/04/05 08:23:59;;;;;;;12.63;7.77;;;44.90;58.10;;;;;;4971973;28;20447;-82
2023/04/05 08:26:25;;;;;;;8.63;7.83;;;45.10;58.20;;;;;;4965441;28;20185;-83
2023/04/05 08:28:51;;;;;;;8.83;8.00;;;44.80;57.60;;;;;;4974657;28;20188;-82
2023/04/05 08:31:17;;;;;;;10.40;7.97;;;44.40;55.80;;;;;;4976048;28;20683;-81
2023/04/05 08:33:42;;;;;;;9.70;8.50;;;44.10;54.80;;;;;;4976784;28;20204;-82
2023/04/05 08:36:10;;;;;;;14.60;8.20;;;44.10;54.90;;;;;;4976342;28;20447;-82
2023/04/05 08:38:36;;;;;;;8.53;7.80;;;43.90;54.10;;;;;;4976239;28;20192;-83
2023/04/05 08:41:20;;;;;;;8.50;7.47;;;43.90;53.60;;;;;;4975331;28;20514;-83
2023/04/05 08:43:52;;;;;;;9.27;7.80;;;44.30;54.50;;;;;;4968123;28;20242;-82
2023/04/05 08:46:19;;;;;;;10.97;7.90;;;44.20;54.70;;;;;;4976363;28;20450;-83
2023/04/05 08:48:45;;;;;;;8.70;7.70;;;44.30;54.60;;;;;;4975867;28;20882;-83
2023/04/05 08:51:10;;;;;;;8.83;7.87;;;44.50;55.00;;;;;;4973457;28;20503;-83
2023/04/05 08:53:36;;;;;;;9.43;7.80;;;44.40;54.30;;;;;;4976495;28;20208;-83
2023/04/05 08:56:03;;;;;;;10.37;7.57;;;44.50;54.40;;;;;;4973517;28;20176;-84
2023/04/05 08:58:30;;;;;;;11.63;7.93;;;44.40;53.30;;;;;;4976764;28;20267;-83
2023/04/05 09:00:57;;;;;;;8.00;7.30;;;43.50;51.00;;;;;;4971388;28;21070;-83
2023/04/05 09:03:27;;;;;;;10.50;8.40;;;43.20;50.80;;;;;;4980596;28;20450;-83
2023/04/05 09:05:53;;;;;;;15.43;9.67;;;43.50;52.10;;;;;;4980584;28;20432;-83
2023/04/05 09:08:22;;;;;;;12.40;9.70;;;42.60;49.20;;;;;;4977461;28;20443;-82
2023/04/05 09:10:52;;;;;;;13.73;8.60;;;41.90;47.30;;;;;;4973157;28;20489;-83
2023/04/05 09:13:18;;;;;;;9.97;8.80;;;41.30;46.40;;;;;;4976534;28;20799;-84
2023/04/05 09:15:45;;;;;;;13.10;11.80;;;41.00;44.90;;;;;;4972626;28;20442;-84
2023/04/05 09:18:11;;;;;;;11.67;10.00;;;40.80;44.40;;;;;;4977162;28;20271;-83
2023/04/05 09:20:37;;;;;;;12.27;9.70;;;40.50;43.70;;;;;;4976301;28;20868;-83
2023/04/05 09:23:03;;;;;;;10.73;9.63;;;40.70;44.20;;;;;;4975084;28;20184;-82
2023/04/05 09:25:32;;;;;;;11.20;10.00;;;40.60;43.80;;;;;;4975709;28;20204;-83
2023/04/05 09:27:59;;;;;;;12.97;11.70;;;40.10;43.60;;;;;;4974916;28;20199;-84
2023/04/05 09:30:28;;;;;;;12.90;9.60;;;39.30;40.90;;;;;;4977798;28;20447;-83
2023/04/05 09:32:55;;;;;;;15.37;10.60;;;38.90;39.40;;;;;;4972098;28;20478;-83
2023/04/05 09:35:27;;;;;;;11.47;10.37;;;39.00;40.90;;;;;;4975771;28;20503;-83
2023/04/05 09:37:54;;;;;;;14.83;11.13;;;39.30;42.40;;;;;;4976341;28;20443;-82
2023/04/05 09:40:39;;;;;;;14.57;9.57;;;39.30;41.80;;;;;;4979183;28;20435;-83
2023/04/05 09:43:05;;;;;;;13.60;8.33;;;38.70;40.60;;;;;;4977424;28;20478;-83
2023/04/05 09:45:41;;;;;;;14.83;8.57;;;38.10;38.60;;;;;;4978478;28;20616;-83
2023/04/05 09:48:08;;;;;;;11.57;9.10;;;38.00;38.80;;;;;;4973696;28;20275;-83
2023/04/05 09:50:36;;;;;;;10.60;8.50;;;37.90;37.90;;;;;;4973290;28;20866;-83
2023/04/05 09:53:18;;;;;;;12.50;9.13;;;38.00;39.30;;;;;;4976588;28;20431;-83
2023/04/05 09:55:43;;;;;;;13.13;9.13;;;38.00;39.00;;;;;;4971974;28;20432;-83
2023/04/05 09:58:17;;;;;;;18.20;9.17;;;38.00;39.80;;;;;;4973479;28;20896;-83
2023/04/05 10:00:53;;;;;;;11.50;9.63;;;37.90;39.30;;;;;;4973884;28;20746;-83
2023/04/05 10:03:19;;;;;;;13.70;8.53;;;37.40;38.10;;;;;;4975135;28;20435;-83
2023/04/05 10:05:46;;;;;;;12.90;9.47;;;37.30;38.70;;;;;;4969043;28;20439;-83
2023/04/05 10:08:13;;;;;;;13.30;8.93;;;37.50;39.40;;;;;;4974662;28;20487;-83
2023/04/05 10:10:46;;;;;;;11.50;8.90;;;37.40;39.20;;;;;;4971738;28;20869;-83
2023/04/05 10:13:13;;;;;;;14.90;9.33;;;37.20;38.50;;;;;;4972199;28;20467;-82
2023/04/05 10:15:42;;;;;;;13.80;8.63;;;37.00;38.70;;;;;;4972384;28;21319;-82
2023/04/05 10:18:20;;;;;;;14.30;9.30;;;36.40;37.10;;;;;;4974462;28;20465;-82
2023/04/05 10:20:49;;;;;;;16.63;9.60;;;35.70;36.20;;;;;;4972586;28;20486;-83
2023/04/05 10:23:27;;;;;;;15.97;10.20;;;35.50;36.20;;;;;;4975171;28;20448;-83
2023/04/05 10:25:52;;;;;;;13.27;9.50;;;35.40;36.40;;;;;;4973593;28;20436;-83
2023/04/05 10:28:38;;;;;;;17.53;10.00;;;35.60;36.40;;;;;;4973176;28;20427;-82
2023/04/05 10:31:25;;;;;;;9.70;8.70;;;35.60;36.60;;;;;;4965916;28;20196;-83
2023/04/05 10:34:03;;;;;;;12.97;8.10;;;34.90;35.10;;;;;;4972662;28;20443;-83
2023/04/05 10:36:40;;;;;;;11.10;8.90;;;34.50;33.80;;;;;;4975137;28;20431;-82
2023/04/05 10:39:15;;;;;;;13.47;9.47;;;33.90;32.60;;;;;;4969181;28;20431;-83
2023/04/05 10:41:47;;;;;;;11.17;8.17;;;33.90;32.70;;;;;;4969012;28;20451;-84
2023/04/05 10:44:14;;;;;;;10.40;7.77;;;33.80;32.90;;;;;;4972605;28;20466;-84
2023/04/05 10:46:40;;;;;;;8.97;8.03;;;34.00;34.00;;;;;;4972281;28;20431;-82
2023/04/05 10:49:30;;;;;;;9.80;7.70;;;34.00;33.50;;;;;;4973662;28;20443;-83
2023/04/05 10:51:56;;;;;;;8.63;7.23;;;33.80;32.50;;;;;;4971814;28;20459;-82
2023/04/05 10:54:22;;;;;;;9.50;5.30;;;34.20;33.90;;;;;;4972074;28;20471;-83
2023/04/05 10:56:49;;;;;;;9.20;6.90;;;34.70;35.40;;;;;;4973054;28;20483;-83
2023/04/05 10:59:16;;;;;;;8.67;6.67;;;34.50;35.40;;;;;;4969870;28;20452;-83
2023/04/05 11:01:42;;;;;;;10.37;5.70;;;33.70;31.20;;;;;;4975708;28;20431;-83
2023/04/05 11:04:12;;;;;;;12.53;6.83;;;33.30;30.50;;;;;;4972140;28;20534;-83
2023/04/05 11:06:38;;;;;;;13.40;7.47;;;33.40;30.30;;;;;;4974328;28;20442;-82
2023/04/05 11:09:14;;;;;;;9.97;7.30;;;33.70;32.30;;;;;;4975593;28;20692;-83
2023/04/05 11:11:45;;;;;;;10.43;7.03;;;34.10;33.50;;;;;;4971657;28;20606;-82
2023/04/05 11:14:40;;;;;;;7.37;5.13;;;33.80;33.00;;;;;;4967435;28;20462;-83
2023/04/05 11:17:27;;;;;;;6.70;6.00;;;33.80;33.20;;;;;;4968579;28;20582;-83
2023/04/05 11:20:04;;;;;;;6.03;5.43;;;33.70;33.00;;;;;;4970821;28;20450;-83
2023/04/05 11:22:32;;;;;;;9.37;6.73;;;33.80;32.60;;;;;;4973547;28;20492;-82
2023/04/05 11:25:01;;;;;;;10.20;6.23;;;33.70;32.60;;;;;;4970870;28;20487;-84
2023/04/05 11:27:59;;;;;;;8.30;6.53;;;33.40;30.70;;;;;;4986927;28;20446;-83
2023/04/05 11:30:51;;;;;;;11.17;7.50;;;32.60;28.90;;;;;;4964529;28;20486;-83
2023/04/05 11:37:19;;;;;;;8.93;7.07;;;33.00;30.20;;;;;;4909322;29;20518;-81
2023/04/05 11:40:10;;;;;;;11.53;7.60;;;32.40;29.50;;;;;;4957404;28;21026;-82
2023/04/05 11:43:21;;;;;;;;;;;;;;;;;;;;;
2023/04/05 11:50:59;;;;;;;9.13;8.23;;;31.30;27.20;;;;;;5246799;23;20478;-83
2023/04/05 11:58:37;;;;;;;9.30;8.03;;;31.10;28.00;;;;;;5154511;23;20599;-82
2023/04/05 12:01:11;;;;;;;22.50;9.23;;;31.10;28.40;;;;;;4935385;29;20464;-80
2023/04/05 12:03:37;;;;;;;14.00;8.67;;;31.40;29.60;;;;;;4933576;28;20483;-83
2023/04/05 12:06:15;;;;;;;12.33;7.30;;;31.70;30.30;;;;;;4945131;28;21151;-81
2023/04/05 12:08:54;;;;;;;10.80;7.87;;;31.30;29.80;;;;;;4937508;29;20208;-81
2023/04/05 12:11:32;;;;;;;10.80;9.70;;;31.10;29.90;;;;;;4933678;29;20503;-81
2023/04/05 12:13:59;;;;;;;11.00;8.80;;;30.60;28.40;;;;;;4932719;29;20437;-81
2023/04/05 12:16:27;;;;;;;11.27;9.47;;;30.30;28.60;;;;;;4934910;29;20442;-81
2023/04/05 12:18:55;;;;;;;11.83;8.40;;;30.40;29.40;;;;;;4952065;28;20706;-82
2023/04/05 12:21:21;;;;;;;15.23;9.20;;;30.50;28.60;;;;;;4940576;29;20476;-81
2023/04/05 12:23:48;;;;;;;10.70;8.57;;;30.30;28.20;;;;;;4952494;28;20441;-81
2023/04/05 12:26:14;;;;;;;11.00;8.97;;;29.80;27.30;;;;;;4933917;29;20438;-84
2023/04/05 12:28:52;;;;;;;11.87;9.60;;;29.20;25.90;;;;;;4937926;29;20454;-83
2023/04/05 12:31:37;;;;;;;11.00;9.10;;;28.70;24.70;;;;;;4953945;28;20465;-83
2023/04/05 12:34:03;;;;;;;11.33;8.70;;;28.40;24.80;;;;;;4935576;29;21036;-83
2023/04/05 12:36:32;;;;;;;12.43;9.10;;;28.40;25.20;;;;;;4934992;29;20438;-84
2023/04/05 12:38:58;;;;;;;9.87;8.83;;;28.70;25.70;;;;;;4927389;29;20234;-84
2023/04/05 12:41:41;;;;;;;11.10;9.13;;;29.10;26.90;;;;;;4923868;28;20892;-84
2023/04/05 12:44:31;;;;;;;12.17;9.40;;;29.40;27.80;;;;;;4935918;29;20548;-83
2023/04/05 12:47:01;;;;;;;12.47;9.00;;;28.90;26.70;;;;;;4936816;29;20449;-84
2023/04/05 12:49:27;;;;;;;11.17;9.53;;;28.70;26.80;;;;;;4934595;29;20453;-83
2023/04/05 12:51:53;;;;;;;11.63;9.60;;;28.10;25.60;;;;;;4929102;29;20474;-85
2023/04/05 12:54:22;;;;;;;10.80;9.70;;;27.70;24.50;;;;;;4928061;29;21098;-83
2023/04/05 12:56:53;;;;;;;11.23;10.00;;;27.50;23.80;;;;;;4925454;29;20201;-84
2023/04/05 12:59:19;;;;;;;11.93;10.27;;;27.40;23.90;;;;;;4933838;29;20508;-83
2023/04/05 13:01:45;;;;;;;12.23;10.93;;;26.70;22.50;;;;;;4931459;29;20468;-83
2023/04/05 13:04:13;;;;;;;12.97;10.77;;;26.10;20.80;;;;;;4933506;29;20453;-86
2023/04/05 13:06:39;;;;;;;11.83;10.50;;;25.50;20.30;;;;;;4926997;29;20194;-84
2023/04/05 13:09:04;;;;;;;20.63;10.43;;;25.40;20.70;;;;;;4927899;29;20469;-85
2023/04/05 13:11:30;;;;;;;11.70;10.00;;;25.70;22.00;;;;;;4934440;29;20237;-85
2023/04/05 13:13:56;;;;;;;10.97;9.87;;;26.10;23.00;;;;;;4935018;29;20182;-84
2023/04/05 13:16:22;;;;;;;12.33;11.07;;;26.60;24.70;;;;;;4931086;29;20198;-86
2023/04/05 13:18:47;;;;;;;13.10;10.70;;;26.90;25.80;;;;;;4934725;29;20461;-84
2023/04/05 13:21:13;;;;;;;10.43;9.43;;;27.20;26.10;;;;;;4928403;29;20194;-84